Time;durP1;ratioP1;P1;durP2;ratioP2;P2;SDS_P1;SDS_P2;PMS_P1;PMS_P2;Temp;Humidity;BMP_temperature;BMP_pressure;BME280_temperature;BME280_humidity;BME280_pressure;Samples;Min_cycle;Max_cycle;Signal;HPM_P1;HPM_P2
2022/03/04 00:02:20;;;;;;;37.27;17.97;;;;;;;;;;5096263;28;20214;-56
2022/03/04 00:04:46;;;;;;;37.50;17.43;;;;;;;;;;5104018;28;20322;-58
2022/03/04 00:07:12;;;;;;;34.33;15.80;;;3.50;1.00;;;;;;5097618;28;20448;-57
2022/03/04 00:09:37;;;;;;;36.27;18.07;;;3.60;1.00;;;;;;5091839;28;20441;-57
2022/03/04 00:12:03;;;;;;;33.83;16.30;;;3.70;1.00;;;;;;5093334;28;20387;-57
2022/03/04 00:14:30;;;;;;;37.17;17.33;;;3.70;1.00;;;;;;5092353;28;20721;-56
2022/03/04 00:16:56;;;;;;;36.87;17.00;;;;;;;;;;5095451;28;20445;-57
2022/03/04 00:19:21;;;;;;;34.87;16.77;;;3.70;1.00;;;;;;5089682;28;20798;-58
2022/03/04 00:21:49;;;;;;;32.93;15.20;;;3.60;1.00;;;;;;5096215;28;20464;-57
2022/03/04 00:24:20;;;;;;;38.90;19.00;;;3.60;1.00;;;;;;5099309;28;20179;-57
2022/03/04 00:26:47;;;;;;;39.83;17.73;;;3.60;1.00;;;;;;5090715;28;20448;-58
2022/03/04 00:29:13;;;;;;;37.50;17.10;;;3.50;1.00;;;;;;5095601;28;20456;-57
2022/03/04 00:31:39;;;;;;;38.87;19.10;;;3.40;1.00;;;;;;5109159;28;20448;-58
2022/03/04 00:34:06;;;;;;;34.20;17.60;;;3.40;1.00;;;;;;5097540;28;20507;-57
2022/03/04 00:36:33;;;;;;;36.07;16.80;;;3.50;1.00;;;;;;5103725;28;20451;-59
2022/03/04 00:38:59;;;;;;;30.43;15.70;;;3.50;1.00;;;;;;5094376;28;20444;-57
2022/03/04 00:41:25;;;;;;;37.07;17.80;;;3.40;1.00;;;;;;5092417;28;20549;-57
2022/03/04 00:43:51;;;;;;;35.30;16.07;;;3.30;1.00;;;;;;5096967;28;20440;-58
2022/03/04 00:46:17;;;;;;;39.17;16.23;;;3.30;1.00;;;;;;5102317;28;20433;-57
2022/03/04 00:48:44;;;;;;;33.70;15.90;;;3.30;1.00;;;;;;5097280;28;20962;-57
2022/03/04 00:51:11;;;;;;;32.97;17.70;;;3.30;1.00;;;;;;5101748;28;20534;-57
2022/03/04 00:53:37;;;;;;;35.63;16.40;;;3.30;1.00;;;;;;5128584;27;20446;-57
2022/03/04 00:56:07;;;;;;;40.37;17.17;;;3.30;1.00;;;;;;5101382;28;20448;-57
2022/03/04 00:58:34;;;;;;;33.37;16.50;;;;;;;;;;5094041;28;20440;-56
2022/03/04 01:00:59;;;;;;;33.40;16.67;;;3.20;1.00;;;;;;5095854;28;20475;-58
2022/03/04 01:03:25;;;;;;;34.20;16.30;;;;;;;;;;5091909;28;20617;-57
2022/03/04 01:05:51;;;;;;;31.43;18.87;;;3.30;1.00;;;;;;5097287;28;20186;-56
2022/03/04 01:08:17;;;;;;;40.97;20.10;;;3.20;1.00;;;;;;5095270;28;20460;-56
2022/03/04 01:10:42;;;;;;;37.20;17.37;;;3.30;1.00;;;;;;5095352;28;20293;-57
2022/03/04 01:13:09;;;;;;;32.07;17.67;;;3.20;1.00;;;;;;5091311;28;20227;-57
2022/03/04 01:15:35;;;;;;;37.80;18.70;;;3.40;1.00;;;;;;5098503;28;20197;-57
2022/03/04 01:18:00;;;;;;;33.50;16.83;;;3.30;1.00;;;;;;5094809;28;20441;-57
2022/03/04 01:20:26;;;;;;;40.43;18.83;;;3.20;1.00;;;;;;5076226;28;20261;-57
2022/03/04 01:22:52;;;;;;;33.70;17.20;;;;;;;;;;5096911;28;20635;-57
2022/03/04 01:25:18;;;;;;;38.23;18.40;;;;;;;;;;5089404;28;20187;-57
2022/03/04 01:27:44;;;;;;;39.30;18.93;;;3.00;1.00;;;;;;5090115;28;20524;-56
2022/03/04 01:30:10;;;;;;;41.03;18.73;;;2.90;1.00;;;;;;5103934;28;20963;-56
2022/03/04 01:32:36;;;;;;;41.50;18.90;;;3.00;1.00;;;;;;5090396;28;20516;-56
2022/03/04 01:35:03;;;;;;;38.33;18.47;;;3.10;1.00;;;;;;5089647;28;20498;-58
2022/03/04 01:37:28;;;;;;;33.07;17.10;;;3.10;1.00;;;;;;5092771;28;20778;-55
2022/03/04 01:39:54;;;;;;;36.20;17.03;;;3.10;1.00;;;;;;5092439;28;20452;-55
2022/03/04 01:42:21;;;;;;;32.93;17.97;;;3.10;1.00;;;;;;5094232;28;20201;-56
2022/03/04 01:44:47;;;;;;;34.60;17.27;;;3.10;1.00;;;;;;5094477;28;20186;-57
2022/03/04 01:47:12;;;;;;;38.33;19.40;;;3.10;1.00;;;;;;5096884;28;20840;-57
2022/03/04 01:49:39;;;;;;;32.83;17.90;;;3.00;1.00;;;;;;5096607;28;20190;-56
2022/03/04 01:52:06;;;;;;;38.53;19.17;;;3.10;1.00;;;;;;5102504;28;20544;-58
2022/03/04 01:54:32;;;;;;;34.97;18.43;;;3.10;1.00;;;;;;5097731;28;20456;-57
2022/03/04 01:56:57;;;;;;;40.20;18.77;;;3.10;1.00;;;;;;5100827;28;20459;-57
2022/03/04 01:59:23;;;;;;;46.97;17.37;;;;;;;;;;5094610;28;20941;-58
2022/03/04 02:01:49;;;;;;;36.20;17.20;;;;;;;;;;5090697;28;20238;-58
2022/03/04 02:04:15;;;;;;;37.77;17.47;;;3.00;1.00;;;;;;5092891;28;20961;-58
2022/03/04 02:06:40;;;;;;;38.97;18.47;;;2.80;1.00;;;;;;5084403;28;20444;-58
2022/03/04 02:09:06;;;;;;;34.20;17.13;;;;;;;;;;5083648;28;20633;-58
2022/03/04 02:11:32;;;;;;;40.07;19.00;;;3.00;1.00;;;;;;5086914;28;20194;-57
2022/03/04 02:13:57;;;;;;;37.13;20.07;;;2.90;1.00;;;;;;5097414;28;20507;-57
2022/03/04 02:16:36;;;;;;;39.53;19.00;;;2.80;1.00;;;;;;5095637;28;20213;-58
2022/03/04 02:19:03;;;;;;;45.73;21.00;;;2.80;1.00;;;;;;5094836;28;20205;-58
2022/03/04 02:21:31;;;;;;;34.13;16.83;;;2.90;1.00;;;;;;5090609;28;20464;-58
2022/03/04 02:23:57;;;;;;;40.13;19.23;;;;;;;;;;5099095;28;20439;-58
2022/03/04 02:26:22;;;;;;;46.77;20.00;;;2.90;1.00;;;;;;5093674;28;20527;-56
2022/03/04 02:28:50;;;;;;;38.40;19.37;;;;;;;;;;5091631;28;20485;-57
2022/03/04 02:31:17;;;;;;;36.60;19.03;;;2.90;1.00;;;;;;5091781;28;20236;-58
2022/03/04 02:33:44;;;;;;;39.60;18.67;;;3.00;1.00;;;;;;5084129;28;20467;-57
2022/03/04 02:36:09;;;;;;;34.50;17.00;;;3.10;1.00;;;;;;5086120;28;20476;-57
2022/03/04 02:38:35;;;;;;;36.50;19.27;;;3.20;1.00;;;;;;5089516;28;20498;-57
2022/03/04 02:41:01;;;;;;;39.07;18.50;;;3.20;1.00;;;;;;5089611;28;20230;-57
2022/03/04 02:43:26;;;;;;;39.00;19.13;;;;;;;;;;5093707;28;20232;-58
2022/03/04 02:45:52;;;;;;;39.03;18.60;;;3.20;1.00;;;;;;5094023;28;20188;-58
2022/03/04 02:48:18;;;;;;;39.17;18.03;;;3.20;1.00;;;;;;5090880;28;20440;-58
2022/03/04 02:50:44;;;;;;;33.77;18.57;;;3.40;1.00;;;;;;5099111;28;20236;-57
2022/03/04 02:53:09;;;;;;;42.30;21.43;;;3.30;1.00;;;;;;5089598;28;20448;-57
2022/03/04 02:55:35;;;;;;;41.53;19.13;;;3.30;1.00;;;;;;5095323;28;20175;-58
2022/03/04 02:58:00;;;;;;;35.13;18.40;;;3.30;1.00;;;;;;5098005;28;20178;-57
2022/03/04 03:00:26;;;;;;;40.23;18.80;;;3.30;1.00;;;;;;5092999;28;20190;-56
2022/03/04 03:02:52;;;;;;;45.37;19.27;;;3.30;1.00;;;;;;5095935;28;20210;-56
2022/03/04 03:05:17;;;;;;;38.07;20.27;;;3.40;1.00;;;;;;5100557;28;20186;-60
2022/03/04 03:07:43;;;;;;;38.10;17.97;;;3.30;1.00;;;;;;5095553;28;20186;-58
2022/03/04 03:10:10;;;;;;;40.90;18.33;;;3.10;1.00;;;;;;5091074;28;20186;-56
2022/03/04 03:12:40;;;;;;;39.77;20.10;;;3.10;1.00;;;;;;5091171;28;20448;-57
2022/03/04 03:15:06;;;;;;;39.03;20.10;;;3.10;1.00;;;;;;5100313;28;20440;-58
2022/03/04 03:17:32;;;;;;;44.77;18.90;;;2.90;1.00;;;;;;5096326;28;20443;-56
2022/03/04 03:19:58;;;;;;;37.97;19.03;;;;;;;;;;5095058;28;20448;-56
2022/03/04 03:22:23;;;;;;;42.80;20.30;;;2.90;1.00;;;;;;5097101;28;20205;-57
2022/03/04 03:24:49;;;;;;;42.10;20.53;;;2.90;1.00;;;;;;5093770;28;20536;-56
2022/03/04 03:27:16;;;;;;;37.10;18.40;;;2.90;1.00;;;;;;5092194;28;20187;-59
2022/03/04 03:29:42;;;;;;;34.93;17.93;;;2.90;1.00;;;;;;5100743;28;20609;-57
2022/03/04 03:32:10;;;;;;;45.37;20.70;;;;;;;;;;5105686;28;20440;-57
2022/03/04 03:34:36;;;;;;;39.03;19.10;;;;;;;;;;5093844;28;20194;-56
2022/03/04 03:37:02;;;;;;;49.10;22.57;;;2.80;1.00;;;;;;5096278;28;20441;-56
2022/03/04 03:39:28;;;;;;;43.60;21.80;;;2.70;1.00;;;;;;5088153;28;20452;-57
2022/03/04 03:41:54;;;;;;;47.37;24.47;;;;;;;;;;5100941;28;20483;-57
2022/03/04 03:44:20;;;;;;;41.57;19.97;;;;;;;;;;5103613;28;20654;-57
2022/03/04 03:46:45;;;;;;;51.00;21.13;;;2.60;1.00;;;;;;5099183;28;20444;-56
2022/03/04 03:49:11;;;;;;;38.83;19.70;;;2.60;1.00;;;;;;5094167;28;20456;-57
2022/03/04 03:51:37;;;;;;;44.67;19.97;;;2.80;1.00;;;;;;5099689;28;20283;-57
2022/03/04 03:54:03;;;;;;;46.03;23.40;;;;;;;;;;5095315;28;20557;-58
2022/03/04 03:56:29;;;;;;;49.53;21.63;;;;;;;;;;5092573;28;20190;-58
2022/03/04 03:58:54;;;;;;;38.67;18.90;;;3.10;1.00;;;;;;5101513;28;21009;-57
2022/03/04 04:01:20;;;;;;;47.47;21.00;;;3.10;1.00;;;;;;5097572;28;20468;-57
2022/03/04 04:03:46;;;;;;;46.17;20.77;;;;;;;;;;5094853;28;20190;-57
2022/03/04 04:06:12;;;;;;;48.93;21.80;;;3.20;1.00;;;;;;5102626;28;20190;-58
2022/03/04 04:08:37;;;;;;;51.30;23.17;;;3.00;1.00;;;;;;5093837;28;20506;-57
2022/03/04 04:11:06;;;;;;;52.83;21.87;;;2.90;1.00;;;;;;5098704;28;20183;-57
2022/03/04 04:13:31;;;;;;;46.30;23.77;;;2.90;1.00;;;;;;5099520;28;20193;-56
2022/03/04 04:15:57;;;;;;;50.43;23.17;;;2.80;1.00;;;;;;5105850;28;20463;-57
2022/03/04 04:18:23;;;;;;;50.93;24.60;;;;;;;;;;5089913;28;20191;-57
2022/03/04 04:20:49;;;;;;;58.13;22.93;;;;;;;;;;5096521;28;20205;-60
2022/03/04 04:23:14;;;;;;;59.10;25.40;;;3.00;1.00;;;;;;5101037;28;20428;-57
2022/03/04 04:25:40;;;;;;;44.70;21.60;;;3.10;1.00;;;;;;5103315;28;20962;-58
2022/03/04 04:28:06;;;;;;;52.93;24.13;;;3.00;1.00;;;;;;5093812;28;20416;-57
2022/03/04 04:30:31;;;;;;;50.93;22.27;;;3.00;1.00;;;;;;5095816;28;20239;-57
2022/03/04 04:32:57;;;;;;;53.50;22.57;;;;;;;;;;5102273;28;20217;-58
2022/03/04 04:35:23;;;;;;;67.67;26.00;;;3.00;1.00;;;;;;5093443;28;20274;-56
2022/03/04 04:37:49;;;;;;;64.90;24.27;;;2.90;1.00;;;;;;5101870;28;20450;-58
2022/03/04 04:40:15;;;;;;;57.80;23.20;;;3.00;1.00;;;;;;5091216;28;20200;-56
2022/03/04 04:42:41;;;;;;;60.63;25.00;;;;;;;;;;5100525;28;20270;-57
2022/03/04 04:45:08;;;;;;;59.53;23.10;;;2.90;1.00;;;;;;5090668;28;20918;-57
2022/03/04 04:47:34;;;;;;;54.53;21.17;;;;;;;;;;5091787;28;20836;-58
2022/03/04 04:49:59;;;;;;;52.77;23.53;;;3.00;1.00;;;;;;5095304;28;20463;-58
2022/03/04 04:52:25;;;;;;;61.00;24.47;;;;;;;;;;5092114;28;20444;-57
2022/03/04 04:54:51;;;;;;;54.77;21.80;;;;;;;;;;5091617;28;20213;-57
2022/03/04 04:57:19;;;;;;;60.97;22.60;;;3.10;1.00;;;;;;5098810;28;21292;-57
2022/03/04 04:59:45;;;;;;;50.47;20.00;;;3.20;1.00;;;;;;5097163;28;20440;-57
2022/03/04 05:02:11;;;;;;;39.93;17.77;;;;;;;;;;5092959;28;20464;-58
2022/03/04 05:04:36;;;;;;;42.40;18.83;;;3.20;1.00;;;;;;5099481;28;20186;-58
2022/03/04 05:07:03;;;;;;;37.53;17.83;;;3.20;1.00;;;;;;5099236;28;20440;-57
2022/03/04 05:09:29;;;;;;;44.50;18.57;;;;;;;;;;5093015;28;20199;-57
2022/03/04 05:11:54;;;;;;;30.60;16.30;;;3.20;1.00;;;;;;5098943;28;20448;-57
2022/03/04 05:14:20;;;;;;;39.93;19.33;;;3.30;1.00;;;;;;5091494;28;20468;-56
2022/03/04 05:16:45;;;;;;;39.37;18.23;;;3.40;1.00;;;;;;5091690;28;20315;-56
2022/03/04 05:19:11;;;;;;;39.30;17.93;;;3.40;1.00;;;;;;5092610;28;20178;-58
2022/03/04 05:21:36;;;;;;;39.23;17.40;;;3.40;1.00;;;;;;5096785;28;20548;-53
2022/03/04 05:24:03;;;;;;;35.63;18.23;;;3.40;1.00;;;;;;5093041;28;20943;-54
2022/03/04 05:26:35;;;;;;;43.80;20.63;;;3.10;1.00;;;;;;5096392;28;20539;-56
2022/03/04 05:29:03;;;;;;;41.37;19.30;;;3.00;1.00;;;;;;5090033;28;20524;-56
2022/03/04 05:31:29;;;;;;;45.10;21.33;;;3.00;1.00;;;;;;5090987;28;20980;-57
2022/03/04 05:33:55;;;;;;;41.57;19.50;;;3.10;1.00;;;;;;5090756;28;20476;-55
2022/03/04 05:36:21;;;;;;;39.57;18.80;;;3.10;1.00;;;;;;5093229;28;20449;-56
2022/03/04 05:38:48;;;;;;;40.07;18.73;;;3.10;1.00;;;;;;5091581;28;20189;-55
2022/03/04 05:41:15;;;;;;;49.23;20.80;;;3.30;1.00;;;;;;5093172;28;20468;-55
2022/03/04 05:43:41;;;;;;;39.93;19.90;;;3.40;1.00;;;;;;5101954;28;20431;-55
2022/03/04 05:46:06;;;;;;;42.77;20.27;;;3.40;1.00;;;;;;5093361;28;20455;-58
2022/03/04 05:48:33;;;;;;;42.60;19.87;;;;;;;;;;5095533;28;20510;-57
2022/03/04 05:50:59;;;;;;;40.67;19.27;;;;;;;;;;5090188;28;20265;-56
2022/03/04 05:53:24;;;;;;;34.23;17.63;;;3.50;1.00;;;;;;5089916;28;20451;-56
2022/03/04 05:55:50;;;;;;;36.13;18.47;;;3.50;1.00;;;;;;5092239;28;20468;-57
2022/03/04 05:58:16;;;;;;;40.40;18.50;;;;;;;;;;5087307;28;20187;-56
2022/03/04 06:00:41;;;;;;;36.00;18.43;;;3.60;1.00;;;;;;5105384;28;20581;-56
2022/03/04 06:03:07;;;;;;;42.07;19.47;;;3.60;1.00;;;;;;5093328;28;20441;-55
2022/03/04 06:05:33;;;;;;;38.50;19.37;;;3.60;1.00;;;;;;5091438;28;20217;-55
2022/03/04 06:07:59;;;;;;;36.60;18.67;;;3.40;1.00;;;;;;5105733;28;20481;-57
2022/03/04 06:10:25;;;;;;;36.30;17.13;;;3.30;1.00;;;;;;5100196;28;20562;-57
2022/03/04 06:12:50;;;;;;;35.17;17.73;;;3.30;1.00;;;;;;5094203;28;20205;-55
2022/03/04 06:15:16;;;;;;;35.40;18.10;;;3.20;1.00;;;;;;5090985;28;20501;-55
2022/03/04 06:17:48;;;;;;;35.13;18.07;;;3.20;1.00;;;;;;5092242;28;20528;-55
2022/03/04 06:20:15;;;;;;;38.87;16.60;;;3.10;1.00;;;;;;5090999;28;20191;-54
2022/03/04 06:22:41;;;;;;;34.07;18.10;;;3.20;1.00;;;;;;5090570;28;20517;-55
2022/03/04 06:25:07;;;;;;;36.50;18.07;;;;;;;;;;5090441;28;20514;-55
2022/03/04 06:27:32;;;;;;;42.83;18.77;;;3.20;1.00;;;;;;5096075;28;20463;-55
2022/03/04 06:29:58;;;;;;;40.13;20.10;;;3.20;1.00;;;;;;5105015;28;21011;-56
2022/03/04 06:32:24;;;;;;;31.63;16.77;;;;;;;;;;5092502;28;20194;-57
2022/03/04 06:34:49;;;;;;;33.23;16.30;;;3.40;1.00;;;;;;5090248;28;20201;-57
2022/03/04 06:37:15;;;;;;;30.30;15.93;;;3.40;1.00;;;;;;5107077;28;20530;-56
2022/03/04 06:39:40;;;;;;;38.40;20.23;;;3.50;1.00;;;;;;5090238;28;20210;-57
2022/03/04 06:42:06;;;;;;;36.67;16.97;;;;;;;;;;5090256;28;20222;-57
2022/03/04 06:44:32;;;;;;;34.80;18.17;;;3.60;1.00;;;;;;5090738;28;20182;-56
2022/03/04 06:46:58;;;;;;;34.93;18.53;;;3.50;1.00;;;;;;5089982;28;20941;-55
2022/03/04 06:49:23;;;;;;;30.10;16.20;;;3.50;1.00;;;;;;5098677;28;20456;-55
2022/03/04 06:51:49;;;;;;;37.23;17.40;;;3.40;1.00;;;;;;5089373;28;20257;-55
2022/03/04 06:54:15;;;;;;;37.17;18.60;;;3.30;1.00;;;;;;5094550;28;20347;-57
2022/03/04 06:56:41;;;;;;;33.17;16.53;;;;;;;;;;5100915;28;20198;-57
2022/03/04 06:59:06;;;;;;;31.70;18.60;;;3.30;1.00;;;;;;5089974;28;20443;-56
2022/03/04 07:01:32;;;;;;;34.00;17.47;;;;;;;;;;5089945;28;20475;-56
2022/03/04 07:03:58;;;;;;;39.07;18.40;;;3.10;1.00;;;;;;5097542;28;20178;-57
2022/03/04 07:06:23;;;;;;;34.73;19.13;;;3.10;1.00;;;;;;5107336;28;20527;-58
2022/03/04 07:08:49;;;;;;;43.27;20.03;;;;;;;;;;5090038;28;20175;-56
2022/03/04 07:11:15;;;;;;;35.83;19.27;;;3.20;1.00;;;;;;5092866;28;20213;-56
2022/03/04 07:13:40;;;;;;;31.83;17.00;;;3.20;1.00;;;;;;5093926;28;20455;-55
2022/03/04 07:16:06;;;;;;;28.80;17.07;;;3.10;1.00;;;;;;5093830;28;20276;-55
2022/03/04 07:18:31;;;;;;;30.37;17.20;;;3.00;1.00;;;;;;5093938;28;20185;-56
2022/03/04 07:21:00;;;;;;;31.20;16.33;;;3.00;1.00;;;;;;5093598;28;20199;-56
2022/03/04 07:23:26;;;;;;;32.33;16.27;;;;;;;;;;5093726;28;20190;-55
2022/03/04 07:25:51;;;;;;;32.83;16.30;;;3.30;1.00;;;;;;5093951;28;20916;-55
2022/03/04 07:28:17;;;;;;;35.17;18.23;;;;;;;;;;5093513;28;20500;-57
2022/03/04 07:30:43;;;;;;;35.67;19.40;;;3.30;1.00;;;;;;5092247;28;20311;-56
2022/03/04 07:33:09;;;;;;;31.67;17.60;;;3.40;1.00;;;;;;5093551;28;20535;-56
2022/03/04 07:35:39;;;;;;;31.27;15.40;;;3.30;1.00;;;;;;5093537;28;20199;-58
2022/03/04 07:38:04;;;;;;;28.73;15.30;;;3.30;1.00;;;;;;5093522;28;20534;-57
2022/03/04 07:40:30;;;;;;;34.67;16.07;;;3.50;1.00;;;;;;5093398;28;20975;-58
2022/03/04 07:42:56;;;;;;;26.67;15.53;;;3.50;1.00;;;;;;5093484;28;20315;-55
2022/03/04 07:45:22;;;;;;;27.60;15.77;;;3.60;1.00;;;;;;5093228;28;20187;-58
2022/03/04 07:47:47;;;;;;;33.03;16.07;;;3.70;1.00;;;;;;5099960;28;20443;-56
2022/03/04 07:50:14;;;;;;;29.77;15.87;;;3.60;1.00;;;;;;5094834;28;20171;-56
2022/03/04 07:52:41;;;;;;;39.27;18.00;;;3.50;1.00;;;;;;5092937;28;20273;-56
2022/03/04 07:55:09;;;;;;;33.20;16.33;;;3.50;1.00;;;;;;5091258;28;20456;-55
2022/03/04 07:57:35;;;;;;;39.13;17.67;;;3.60;1.00;;;;;;5093168;28;20589;-57
2022/03/04 08:00:04;;;;;;;31.97;16.50;;;3.70;1.00;;;;;;5092692;28;20437;-55
2022/03/04 08:02:30;;;;;;;25.67;15.47;;;;;;;;;;5092090;28;20483;-57
2022/03/04 08:04:56;;;;;;;28.93;14.90;;;;;;;;;;5091838;28;20448;-56
2022/03/04 08:07:22;;;;;;;33.70;14.80;;;;;;;;;;5099919;28;20468;-57
2022/03/04 08:09:48;;;;;;;32.30;17.00;;;;;;;;;;5091666;28;20445;-57
2022/03/04 08:12:13;;;;;;;28.20;15.63;;;3.60;1.00;;;;;;5091787;28;21000;-57
2022/03/04 08:14:39;;;;;;;28.03;14.90;;;3.50;1.00;;;;;;5089993;28;20432;-56
2022/03/04 08:17:05;;;;;;;26.37;14.77;;;3.50;1.00;;;;;;5093199;28;20183;-56
2022/03/04 08:19:31;;;;;;;29.10;14.53;;;3.60;1.00;;;;;;5091091;28;20620;-57
2022/03/04 08:21:57;;;;;;;25.47;14.80;;;3.60;1.00;;;;;;5091732;28;20503;-56
2022/03/04 08:24:23;;;;;;;31.60;15.57;;;3.70;1.00;;;;;;5092450;28;20460;-55
2022/03/04 08:26:49;;;;;;;28.43;15.30;;;;;;;;;;5092557;28;20675;-56
2022/03/04 08:29:14;;;;;;;27.83;14.67;;;3.90;1.00;;;;;;5092577;28;20674;-54
2022/03/04 08:31:40;;;;;;;31.47;14.80;;;4.00;1.00;;;;;;5092467;28;20523;-58
2022/03/04 08:34:06;;;;;;;32.57;16.57;;;;;;;;;;5092447;28;20184;-58
2022/03/04 08:36:32;;;;;;;27.30;15.43;;;4.10;1.00;;;;;;5092408;28;20178;-59
2022/03/04 08:39:02;;;;;;;27.13;14.40;;;;;;;;;;5096708;28;20472;-57
2022/03/04 08:41:29;;;;;;;25.13;14.30;;;4.10;1.00;;;;;;5091255;28;20563;-56
2022/03/04 08:43:54;;;;;;;30.20;15.13;;;4.10;1.00;;;;;;5092107;28;20544;-57
2022/03/04 08:46:21;;;;;;;26.70;15.23;;;4.00;1.00;;;;;;5091576;28;21029;-57
2022/03/04 08:48:47;;;;;;;31.20;15.97;;;4.00;1.00;;;;;;5090770;28;20266;-57
2022/03/04 08:51:12;;;;;;;25.20;12.90;;;4.10;1.00;;;;;;5091951;28;20533;-57
2022/03/04 08:53:38;;;;;;;24.30;13.07;;;4.00;1.00;;;;;;5091969;28;20222;-58
2022/03/04 08:56:06;;;;;;;23.60;14.83;;;3.90;1.00;;;;;;5092062;28;20303;-58
2022/03/04 08:58:32;;;;;;;32.63;16.37;;;3.90;1.00;;;;;;5091590;28;20193;-56
2022/03/04 09:00:59;;;;;;;28.17;15.60;;;3.90;1.00;;;;;;5092007;28;20445;-57
2022/03/04 09:03:24;;;;;;;26.93;13.60;;;4.00;1.00;;;;;;5092115;28;20942;-56
2022/03/04 09:05:50;;;;;;;26.33;14.30;;;;;;;;;;5091831;28;20436;-59
2022/03/04 09:08:16;;;;;;;30.50;15.70;;;3.80;1.00;;;;;;5091490;28;20171;-58
2022/03/04 09:10:42;;;;;;;25.77;13.87;;;3.80;1.00;;;;;;5090382;28;20443;-58
2022/03/04 09:13:07;;;;;;;27.00;14.20;;;3.80;1.00;;;;;;5102530;28;20185;-58
2022/03/04 09:15:33;;;;;;;32.87;14.57;;;3.90;1.00;;;;;;5106154;28;20266;-56
2022/03/04 09:17:59;;;;;;;25.93;13.97;;;4.00;1.00;;;;;;5112166;27;20269;-58
2022/03/04 09:20:25;;;;;;;27.93;13.63;;;4.00;1.00;;;;;;5112062;28;20454;-58
2022/03/04 09:22:51;;;;;;;26.87;14.53;;;4.00;1.00;;;;;;5111720;28;20546;-57
2022/03/04 09:25:17;;;;;;;25.80;12.43;;;;;;;;;;5112004;28;20193;-57
2022/03/04 09:27:43;;;;;;;26.40;14.30;;;4.20;1.00;;;;;;5106231;28;20580;-57
2022/03/04 09:30:11;;;;;;;35.20;14.90;;;4.30;1.00;;;;;;5091177;28;20504;-58
2022/03/04 09:32:37;;;;;;;29.63;15.47;;;4.30;1.00;;;;;;5091358;28;20795;-57
2022/03/04 09:35:05;;;;;;;27.43;14.83;;;4.10;1.00;;;;;;5103678;28;20435;-58
2022/03/04 09:37:30;;;;;;;22.00;12.80;;;4.00;1.00;;;;;;5111530;28;20478;-57
2022/03/04 09:39:56;;;;;;;31.47;14.53;;;4.10;1.00;;;;;;5096808;28;20484;-57
2022/03/04 09:42:22;;;;;;;30.30;14.33;;;;;;;;;;5100103;28;20562;-58
2022/03/04 09:44:48;;;;;;;33.37;15.30;;;4.10;1.00;;;;;;5093609;28;20178;-56
2022/03/04 09:47:22;;;;;;;28.17;15.00;;;4.10;1.00;;;;;;5096201;28;20508;-56
2022/03/04 09:49:50;;;;;;;27.70;15.20;;;4.20;1.00;;;;;;5090251;28;20432;-58
2022/03/04 09:52:16;;;;;;;25.10;14.53;;;;;;;;;;5101205;28;20440;-57
2022/03/04 09:54:47;;;;;;;31.87;14.90;;;4.50;1.00;;;;;;5111344;28;20993;-56
2022/03/04 09:57:13;;;;;;;26.97;14.27;;;4.50;1.00;;;;;;5091756;28;20447;-59
2022/03/04 09:59:38;;;;;;;26.10;14.30;;;4.60;1.00;;;;;;5090961;28;20934;-58
2022/03/04 10:02:05;;;;;;;24.13;14.43;;;4.50;1.00;;;;;;5094352;28;20248;-59
2022/03/04 10:04:33;;;;;;;29.70;15.00;;;;;;;;;;5090142;28;20569;-59
2022/03/04 10:07:11;;;;;;;31.13;14.13;;;4.50;1.00;;;;;;5106578;28;20507;-59
2022/03/04 10:09:45;;;;;;;25.77;14.27;;;4.50;1.00;;;;;;5095588;28;20468;-58
2022/03/04 10:12:12;;;;;;;24.37;12.40;;;4.60;1.00;;;;;;5091639;28;20797;-58
2022/03/04 10:15:04;;;;;;;25.10;14.73;;;4.50;1.00;;;;;;5099424;28;20802;-59
2022/03/04 10:17:31;;;;;;;26.23;14.03;;;4.60;1.00;;;;;;5091006;28;20797;-59
2022/03/04 10:19:59;;;;;;;28.67;14.80;;;4.60;1.00;;;;;;5110674;28;20496;-57
2022/03/04 10:22:42;;;;;;;22.30;13.10;;;4.50;1.00;;;;;;5093595;28;20467;-58
2022/03/04 10:25:19;;;;;;;21.03;13.23;;;4.50;1.00;;;;;;5090294;28;20439;-58
2022/03/04 10:27:45;;;;;;;20.93;11.57;;;4.50;1.00;;;;;;5092081;28;20441;-60
2022/03/04 10:30:11;;;;;;;18.77;10.53;;;4.50;1.00;;;;;;5093120;28;21016;-58
2022/03/04 10:32:38;;;;;;;22.33;12.60;;;;;;;;;;5096832;28;20528;-59
2022/03/04 10:35:06;;;;;;;20.73;12.43;;;4.10;1.00;;;;;;5090378;28;20182;-63
2022/03/04 10:37:54;;;;;;;19.77;12.50;;;4.10;1.00;;;;;;5090783;28;20763;-59
2022/03/04 10:40:29;;;;;;;24.50;13.83;;;4.30;1.00;;;;;;5090246;28;20577;-58
2022/03/04 10:43:01;;;;;;;24.63;13.50;;;4.60;1.00;;;;;;5090393;28;20797;-59
2022/03/04 10:45:31;;;;;;;25.83;13.83;;;4.60;1.00;;;;;;5092832;28;20918;-59
2022/03/04 10:47:59;;;;;;;22.50;13.50;;;;;;;;;;5090492;28;20428;-60
2022/03/04 10:50:28;;;;;;;26.87;14.57;;;;;;;;;;5103326;28;20457;-59
2022/03/04 10:53:10;;;;;;;24.07;13.77;;;4.70;1.00;;;;;;5104420;28;20443;-59
2022/03/04 10:55:40;;;;;;;31.70;14.70;;;4.70;1.00;;;;;;5102534;28;20436;-58
2022/03/04 10:58:21;;;;;;;33.80;15.17;;;4.50;1.00;;;;;;5093610;28;20437;-58
2022/03/04 11:00:49;;;;;;;30.87;16.40;;;4.60;1.00;;;;;;5092934;28;20444;-58
2022/03/04 11:03:24;;;;;;;27.80;16.57;;;4.50;1.00;;;;;;5097731;28;20977;-58
2022/03/04 11:05:51;;;;;;;33.10;16.17;;;4.50;1.00;;;;;;5095067;28;20493;-59
2022/03/04 11:08:17;;;;;;;33.50;16.00;;;4.60;1.00;;;;;;5094442;28;20479;-59
2022/03/04 11:10:43;;;;;;;30.90;17.47;;;4.70;1.00;;;;;;5095255;28;20437;-59
2022/03/04 11:13:10;;;;;;;29.93;15.47;;;4.80;1.00;;;;;;5100851;28;20466;-59
2022/03/04 11:15:37;;;;;;;36.47;17.53;;;4.80;1.00;;;;;;5097373;28;20940;-60
2022/03/04 11:18:11;;;;;;;28.23;15.73;;;4.80;1.00;;;;;;5094209;28;20445;-60
2022/03/04 11:20:38;;;;;;;35.17;16.23;;;4.90;1.00;;;;;;5096824;28;20445;-59
2022/03/04 11:23:05;;;;;;;33.40;19.37;;;4.80;1.00;;;;;;5099768;28;20772;-59
2022/03/04 11:25:39;;;;;;;31.63;17.40;;;4.70;1.00;;;;;;5097056;28;20833;-60
2022/03/04 11:28:10;;;;;;;35.93;18.63;;;4.50;1.00;;;;;;5091914;28;20555;-58
2022/03/04 11:30:41;;;;;;;35.17;18.80;;;4.50;1.00;;;;;;5098428;28;20464;-60
2022/03/04 11:33:20;;;;;;;33.17;19.13;;;4.40;1.00;;;;;;5099266;28;20443;-59
2022/03/04 11:36:09;;;;;;;35.93;18.27;;;4.70;1.00;;;;;;5097749;28;20808;-59
2022/03/04 11:38:46;;;;;;;35.00;17.80;;;4.90;1.00;;;;;;5094702;28;20516;-58
2022/03/04 11:41:40;;;;;;;33.87;16.50;;;5.00;1.00;;;;;;5100614;28;20456;-58
2022/03/04 11:44:10;;;;;;;31.60;17.30;;;4.90;1.00;;;;;;5093997;28;20424;-59
2022/03/04 11:47:02;;;;;;;33.30;17.53;;;5.00;1.00;;;;;;5097946;28;20915;-58
2022/03/04 11:49:33;;;;;;;32.17;17.87;;;5.30;1.00;;;;;;5099693;28;20960;-58
2022/03/04 11:52:19;;;;;;;30.20;16.80;;;5.30;1.00;;;;;;5099998;28;20440;-59
2022/03/04 11:54:51;;;;;;;40.40;17.40;;;5.30;1.00;;;;;;5096572;28;20511;-58
2022/03/04 11:57:25;;;;;;;30.13;16.87;;;5.40;1.00;;;;;;5101777;28;20496;-58
2022/03/04 11:59:59;;;;;;;34.30;17.17;;;5.20;1.00;;;;;;5107573;28;20465;-58
2022/03/04 12:02:36;;;;;;;35.33;15.53;;;5.20;1.00;;;;;;5104455;28;20970;-60
2022/03/04 12:05:29;;;;;;;35.63;17.40;;;5.10;1.00;;;;;;5106656;28;21016;-60
2022/03/04 12:07:54;;;;;;;38.60;20.40;;;5.20;1.00;;;;;;5102597;28;20444;-58
2022/03/04 12:10:25;;;;;;;33.50;17.47;;;5.50;1.00;;;;;;5100326;28;20439;-60
2022/03/04 12:13:04;;;;;;;34.50;18.37;;;5.40;1.00;;;;;;5101643;28;20738;-58
2022/03/04 12:15:32;;;;;;;41.07;19.87;;;5.50;1.00;;;;;;5100633;28;20440;-60
2022/03/04 12:18:07;;;;;;;33.20;16.63;;;5.50;1.00;;;;;;5095320;28;20490;-59
2022/03/04 12:20:39;;;;;;;31.60;17.30;;;5.50;1.00;;;;;;5102563;28;20448;-60
2022/03/04 12:23:09;;;;;;;32.03;16.80;;;5.60;1.00;;;;;;5093359;28;20961;-59
2022/03/04 12:25:53;;;;;;;31.70;18.50;;;5.40;1.00;;;;;;5098928;28;20589;-60
2022/03/04 12:28:20;;;;;;;33.17;17.40;;;5.40;1.00;;;;;;5101026;28;20879;-59
2022/03/04 12:31:07;;;;;;;36.93;18.33;;;5.20;1.00;;;;;;5099883;28;20584;-59
2022/03/04 12:33:37;;;;;;;33.93;18.40;;;5.00;1.00;;;;;;5105315;28;20443;-60
2022/03/04 12:36:09;;;;;;;33.67;18.37;;;4.90;1.00;;;;;;5099622;28;20622;-60
2022/03/04 12:38:41;;;;;;;38.33;19.27;;;5.00;1.00;;;;;;5098043;28;20437;-57
2022/03/04 12:43:38;;;;;;;34.37;18.80;;;5.30;1.00;;;;;;5104148;28;20477;-59
2022/03/04 12:48:33;;;;;;;30.07;16.07;;;5.60;1.00;;;;;;5095813;28;20453;-61
2022/03/04 12:50:59;;;;;;;33.87;16.03;;;5.60;1.00;;;;;;5102298;28;20444;-60
2022/03/04 12:53:28;;;;;;;31.80;14.27;;;5.70;1.00;;;;;;5099843;28;20525;-61
2022/03/04 12:56:01;;;;;;;29.57;14.87;;;5.80;1.00;;;;;;5100867;28;20175;-60
2022/03/04 12:58:38;;;;;;;32.77;17.17;;;5.80;1.00;;;;;;5099762;28;20445;-61
2022/03/04 13:01:07;;;;;;;25.70;15.20;;;5.90;1.00;;;;;;5099051;28;20448;-59
2022/03/04 13:03:34;;;;;;;34.13;17.20;;;5.70;1.00;;;;;;5098442;28;20824;-61
2022/03/04 13:06:00;;;;;;;26.67;16.13;;;;;;;;;;5102240;28;20917;-61
2022/03/04 13:08:26;;;;;;;25.33;15.60;;;;;;;;;;5103488;28;20765;-60
2022/03/04 13:10:55;;;;;;;26.00;15.37;;;5.60;1.00;;;;;;5096854;28;20445;-59